Time;durP1;ratioP1;P1;durP2;ratioP2;P2;SDS_P1;SDS_P2;PMS_P1;PMS_P2;Temp;Humidity;BMP_temperature;BMP_pressure;BME280_temperature;BME280_humidity;BME280_pressure;Samples;Min_cycle;Max_cycle;Signal;HPM_P1;HPM_P2
2023/05/13 00:01:40;;;;;;;10.50;9.50;;;12.30;99.90;;;;;;4963395;28;20474;-66
2023/05/13 00:04:09;;;;;;;10.33;9.33;;;12.30;99.90;;;;;;4967634;28;20504;-64
2023/05/13 00:06:37;;;;;;;11.00;10.00;;;12.20;99.90;;;;;;4966960;28;20517;-66
2023/05/13 00:09:05;;;;;;;10.70;9.60;;;12.20;99.90;;;;;;4968085;28;20492;-66
2023/05/13 00:11:34;;;;;;;11.50;10.20;;;12.20;99.90;;;;;;4960657;28;20473;-65
2023/05/13 00:14:02;;;;;;;11.07;10.10;;;12.20;99.90;;;;;;4964544;28;20488;-64
2023/05/13 00:16:30;;;;;;;11.07;10.00;;;12.10;99.90;;;;;;4960392;28;20497;-64
2023/05/13 00:18:58;;;;;;;11.03;10.13;;;12.10;99.90;;;;;;4955012;28;20587;-64
2023/05/13 00:21:28;;;;;;;11.40;10.03;;;12.10;99.90;;;;;;4959505;28;20560;-64
2023/05/13 00:23:56;;;;;;;9.77;8.87;;;12.00;99.90;;;;;;4959226;28;21090;-64
2023/05/13 00:26:24;;;;;;;11.27;10.17;;;12.00;99.90;;;;;;4967124;28;20484;-65
2023/05/13 00:28:52;;;;;;;12.67;10.87;;;12.00;99.90;;;;;;4970071;28;20500;-65
2023/05/13 00:31:20;;;;;;;10.80;9.60;;;11.90;99.90;;;;;;4966277;28;20481;-63
2023/05/13 00:33:48;;;;;;;11.53;10.27;;;11.90;99.90;;;;;;4959826;28;20469;-65
2023/05/13 00:36:16;;;;;;;10.67;9.73;;;11.90;99.90;;;;;;4956787;28;20481;-64
2023/05/13 00:38:46;;;;;;;10.60;9.60;;;11.90;99.90;;;;;;4974834;28;21111;-65
2023/05/13 00:41:13;;;;;;;11.23;10.30;;;11.80;99.90;;;;;;4974720;28;20476;-64
2023/05/13 00:43:41;;;;;;;10.53;9.63;;;11.80;99.90;;;;;;4966742;28;20485;-65
2023/05/13 00:46:09;;;;;;;10.90;9.80;;;11.70;99.90;;;;;;4960810;28;21046;-65
2023/05/13 00:48:38;;;;;;;11.60;10.63;;;11.70;99.90;;;;;;4962015;28;20497;-64
2023/05/13 00:51:06;;;;;;;11.97;10.83;;;11.70;99.90;;;;;;4961680;28;20488;-65
2023/05/13 00:53:34;;;;;;;11.67;10.80;;;11.60;99.90;;;;;;4956723;28;21233;-64
2023/05/13 00:56:04;;;;;;;11.80;10.60;;;11.60;99.90;;;;;;4964432;28;20480;-64
2023/05/13 00:58:32;;;;;;;11.30;10.10;;;11.60;99.90;;;;;;4974455;28;20875;-65
2023/05/13 01:01:09;;;;;;;11.77;10.67;;;11.50;99.90;;;;;;4963608;28;20902;-65
2023/05/13 01:03:46;;;;;;;12.17;11.10;;;11.50;99.90;;;;;;4960200;28;22073;-64
2023/05/13 01:06:17;;;;;;;12.10;11.10;;;11.50;99.90;;;;;;4961048;28;20472;-65
2023/05/13 01:08:52;;;;;;;11.83;10.77;;;11.50;99.90;;;;;;4955796;28;20852;-64
2023/05/13 01:11:26;;;;;;;12.13;10.90;;;11.40;99.90;;;;;;4967385;28;21021;-65
2023/05/13 01:14:02;;;;;;;12.20;11.20;;;11.40;99.90;;;;;;4960683;28;20480;-65
2023/05/13 01:16:35;;;;;;;12.20;11.10;;;11.40;99.90;;;;;;4969371;28;20503;-65
2023/05/13 01:19:21;;;;;;;11.93;10.90;;;11.40;99.90;;;;;;4962649;28;20500;-64
2023/05/13 01:21:53;;;;;;;12.13;11.07;;;11.30;99.90;;;;;;4973154;28;20483;-64
2023/05/13 01:24:21;;;;;;;12.70;11.50;;;11.30;99.90;;;;;;4976568;28;20468;-64
2023/05/13 01:26:50;;;;;;;12.57;11.30;;;11.30;99.90;;;;;;4981108;28;20489;-64
2023/05/13 01:29:18;;;;;;;13.43;12.13;;;11.30;99.90;;;;;;4975894;28;21031;-64
2023/05/13 01:31:47;;;;;;;13.40;12.10;;;11.30;99.90;;;;;;4976304;28;20476;-64
2023/05/13 01:34:15;;;;;;;13.00;11.80;;;11.20;99.90;;;;;;4971001;28;21013;-64
2023/05/13 01:36:44;;;;;;;14.70;11.73;;;11.20;99.90;;;;;;4972395;28;21202;-64
2023/05/13 01:39:13;;;;;;;12.10;11.03;;;11.20;99.90;;;;;;4963842;28;20504;-64
2023/05/13 01:41:41;;;;;;;11.97;10.97;;;11.20;99.90;;;;;;4981853;28;20508;-64
2023/05/13 01:44:09;;;;;;;13.63;12.30;;;11.20;99.90;;;;;;4975700;28;20480;-64
2023/05/13 01:46:38;;;;;;;13.13;11.90;;;11.10;99.90;;;;;;4974647;28;21005;-64
2023/05/13 01:49:08;;;;;;;13.63;12.37;;;11.10;99.90;;;;;;4967854;28;20512;-64
2023/05/13 01:51:36;;;;;;;12.80;11.70;;;11.10;99.90;;;;;;4965437;28;20966;-64
2023/05/13 01:54:05;;;;;;;12.80;11.70;;;11.00;99.90;;;;;;4964148;28;20472;-64
2023/05/13 01:56:34;;;;;;;12.97;11.80;;;11.00;99.90;;;;;;4973926;28;20827;-66
2023/05/13 01:59:02;;;;;;;14.77;13.50;;;11.00;99.90;;;;;;4968989;28;20497;-64
2023/05/13 02:01:30;;;;;;;13.73;12.47;;;10.90;99.90;;;;;;4962235;28;20488;-65
2023/05/13 02:03:59;;;;;;;15.00;13.53;;;11.00;99.90;;;;;;4965610;28;20466;-65
2023/05/13 02:06:27;;;;;;;12.87;11.37;;;10.90;99.90;;;;;;4961877;28;20551;-65
2023/05/13 02:08:55;;;;;;;13.30;12.00;;;10.90;99.90;;;;;;4966648;28;20863;-65
2023/05/13 02:11:23;;;;;;;13.47;12.13;;;10.90;99.90;;;;;;4956436;28;20995;-65
2023/05/13 02:13:52;;;;;;;13.40;12.23;;;10.80;99.90;;;;;;4971241;28;20472;-65
2023/05/13 02:16:20;;;;;;;13.50;12.20;;;10.80;99.90;;;;;;4979880;28;20493;-65
2023/05/13 02:18:48;;;;;;;13.20;12.03;;;10.80;99.90;;;;;;4963191;28;20550;-65
2023/05/13 02:21:16;;;;;;;15.93;13.23;;;10.80;99.90;;;;;;4966483;28;20470;-65
2023/05/13 02:23:44;;;;;;;13.90;12.70;;;10.80;99.90;;;;;;4960063;28;20495;-65
2023/05/13 02:26:12;;;;;;;14.33;12.93;;;10.70;99.90;;;;;;4962684;28;20483;-65
2023/05/13 02:28:40;;;;;;;14.00;12.60;;;10.70;99.90;;;;;;4964585;28;20489;-65
2023/05/13 02:31:09;;;;;;;13.67;12.57;;;10.70;99.90;;;;;;4964070;28;21043;-65
2023/05/13 02:33:37;;;;;;;14.77;13.37;;;10.70;99.90;;;;;;4963601;28;20473;-65
2023/05/13 02:36:06;;;;;;;15.10;13.80;;;10.70;99.90;;;;;;4964468;28;21057;-65
2023/05/13 02:38:34;;;;;;;14.47;13.17;;;10.60;99.90;;;;;;4957742;28;20507;-65
2023/05/13 02:41:02;;;;;;;14.70;13.40;;;10.60;99.90;;;;;;4959790;28;20926;-65
2023/05/13 02:43:30;;;;;;;13.97;12.77;;;10.50;99.90;;;;;;4968580;28;20524;-65
2023/05/13 02:45:58;;;;;;;14.07;12.97;;;10.50;99.90;;;;;;4967956;28;20504;-65
2023/05/13 02:48:27;;;;;;;15.23;14.03;;;10.50;99.90;;;;;;4961049;28;20888;-65
2023/05/13 02:50:55;;;;;;;14.37;13.03;;;10.50;99.90;;;;;;4955335;28;20473;-65
2023/05/13 02:53:23;;;;;;;15.30;13.80;;;10.40;99.90;;;;;;4961306;28;20876;-65
2023/05/13 02:55:51;;;;;;;14.90;13.60;;;10.40;99.90;;;;;;4956306;28;20484;-65
2023/05/13 02:58:19;;;;;;;14.13;12.97;;;10.40;99.90;;;;;;4958085;28;20488;-65
2023/05/13 03:00:47;;;;;;;16.30;14.70;;;10.30;99.90;;;;;;4962951;28;20525;-65
2023/05/13 03:03:15;;;;;;;16.10;14.67;;;10.30;99.90;;;;;;4965706;28;20508;-65
2023/05/13 03:05:44;;;;;;;15.77;14.20;;;10.30;99.90;;;;;;4964553;28;20592;-65
2023/05/13 03:08:12;;;;;;;15.73;14.20;;;10.30;99.90;;;;;;4981420;28;20523;-65
2023/05/13 03:10:40;;;;;;;16.37;14.77;;;10.20;99.90;;;;;;4973130;28;20481;-65
2023/05/13 03:13:08;;;;;;;15.53;14.13;;;10.20;99.90;;;;;;4974477;28;20818;-65
2023/05/13 03:15:36;;;;;;;15.70;14.30;;;10.20;99.90;;;;;;4978218;28;20473;-65
2023/05/13 03:18:04;;;;;;;15.93;14.53;;;10.20;99.90;;;;;;4977911;28;20489;-65
2023/05/13 03:20:32;;;;;;;17.63;14.90;;;10.20;99.90;;;;;;4974688;28;20914;-65
2023/05/13 03:23:01;;;;;;;15.73;14.33;;;10.10;99.90;;;;;;4978716;28;20991;-65
2023/05/13 03:25:30;;;;;;;16.17;14.60;;;10.10;99.90;;;;;;4979306;28;20474;-64
2023/05/13 03:27:58;;;;;;;15.77;14.37;;;10.10;99.90;;;;;;4980712;28;20493;-66
2023/05/13 03:30:26;;;;;;;16.10;14.60;;;10.10;99.90;;;;;;4975386;28;20758;-66
2023/05/13 03:32:55;;;;;;;16.53;14.83;;;10.10;99.90;;;;;;4979438;28;20477;-66
2023/05/13 03:35:23;;;;;;;16.17;14.83;;;10.10;99.90;;;;;;4979601;28;20477;-66
2023/05/13 03:37:51;;;;;;;17.30;15.90;;;10.10;99.90;;;;;;4967043;28;21006;-65
2023/05/13 03:40:20;;;;;;;16.30;14.70;;;10.00;99.90;;;;;;4961923;28;21028;-66
2023/05/13 03:42:51;;;;;;;17.53;16.00;;;10.00;99.90;;;;;;4964331;28;20473;-66
2023/05/13 03:45:19;;;;;;;16.97;15.27;;;10.00;99.90;;;;;;4961254;28;20505;-66
2023/05/13 03:47:47;;;;;;;17.20;15.70;;;10.00;99.90;;;;;;4966577;28;20489;-66
2023/05/13 03:50:16;;;;;;;18.20;16.40;;;10.00;99.90;;;;;;4978396;28;20512;-66
2023/05/13 03:52:44;;;;;;;18.43;16.73;;;10.00;99.90;;;;;;4962334;28;20473;-66
2023/05/13 03:55:14;;;;;;;19.30;17.40;;;9.90;99.90;;;;;;4972769;28;20516;-66
2023/05/13 03:57:49;;;;;;;19.40;17.70;;;10.00;99.90;;;;;;4962404;28;20510;-66
2023/05/13 04:00:17;;;;;;;18.27;16.70;;;10.00;99.90;;;;;;4961691;28;20500;-66
2023/05/13 04:02:45;;;;;;;18.63;16.90;;;10.00;99.90;;;;;;4974689;28;20554;-66
2023/05/13 04:05:14;;;;;;;18.70;17.07;;;10.00;99.90;;;;;;4996604;28;20473;-65
2023/05/13 04:07:42;;;;;;;19.07;17.20;;;10.00;99.90;;;;;;4983296;28;20497;-64
2023/05/13 04:10:10;;;;;;;19.23;17.53;;;10.00;99.90;;;;;;4976068;28;20945;-64
2023/05/13 04:12:43;;;;;;;20.30;18.33;;;10.00;99.90;;;;;;4968661;28;21579;-64
2023/05/13 04:15:12;;;;;;;19.00;17.30;;;10.00;99.90;;;;;;4962220;28;20472;-64
2023/05/13 04:17:39;;;;;;;19.50;17.60;;;10.00;99.90;;;;;;4963264;28;20493;-64
2023/05/13 04:20:08;;;;;;;18.70;17.00;;;10.00;99.90;;;;;;4966407;28;20497;-65
2023/05/13 04:22:36;;;;;;;19.30;17.40;;;10.10;99.90;;;;;;4966520;28;20476;-64
2023/05/13 04:25:05;;;;;;;18.87;17.17;;;10.10;99.90;;;;;;4968106;28;20473;-64
2023/05/13 04:27:33;;;;;;;18.30;16.67;;;10.10;99.90;;;;;;4973431;28;20842;-64
2023/05/13 04:30:03;;;;;;;20.23;18.27;;;10.10;99.90;;;;;;4968956;28;20498;-64
2023/05/13 04:32:30;;;;;;;17.67;16.07;;;10.10;99.90;;;;;;4968679;28;21132;-64
2023/05/13 04:34:58;;;;;;;18.13;16.50;;;10.10;99.90;;;;;;4964220;28;20523;-64
2023/05/13 04:37:27;;;;;;;17.60;16.10;;;10.20;99.90;;;;;;4969010;28;20488;-64
2023/05/13 04:39:55;;;;;;;20.20;18.10;;;10.20;99.90;;;;;;4962122;28;20482;-64
2023/05/13 04:42:23;;;;;;;18.73;17.00;;;10.20;99.90;;;;;;4962709;28;20508;-64
2023/05/13 04:44:51;;;;;;;20.17;18.03;;;10.20;99.90;;;;;;4955416;28;21005;-64
2023/05/13 04:47:20;;;;;;;18.90;17.20;;;10.30;99.90;;;;;;4963882;28;20497;-64
2023/05/13 04:49:48;;;;;;;17.77;16.17;;;10.30;99.90;;;;;;4973090;28;20873;-64
2023/05/13 04:52:16;;;;;;;18.57;16.87;;;10.40;99.90;;;;;;4972679;28;20473;-64
2023/05/13 04:54:44;;;;;;;18.57;16.97;;;10.40;99.90;;;;;;4962900;28;21835;-65
2023/05/13 04:57:12;;;;;;;18.53;16.83;;;10.40;99.90;;;;;;4969248;28;20869;-65
2023/05/13 04:59:40;;;;;;;18.37;16.50;;;10.50;99.90;;;;;;4969674;28;20499;-65
2023/05/13 05:02:08;;;;;;;17.43;15.97;;;10.50;99.90;;;;;;4973405;28;20504;-65
2023/05/13 05:04:37;;;;;;;18.47;16.87;;;10.60;99.90;;;;;;4959175;28;20481;-65
2023/05/13 05:07:05;;;;;;;19.13;17.33;;;10.60;99.90;;;;;;4965881;28;20515;-65
2023/05/13 05:09:33;;;;;;;18.60;16.73;;;10.70;99.90;;;;;;4964560;28;20485;-65
2023/05/13 05:12:01;;;;;;;19.20;17.37;;;10.80;99.90;;;;;;4964213;28;20471;-65
2023/05/13 05:14:30;;;;;;;18.97;17.10;;;10.80;99.90;;;;;;4963699;28;20480;-65
2023/05/13 05:16:58;;;;;;;17.60;15.90;;;10.90;99.90;;;;;;4961236;28;20504;-65
2023/05/13 05:19:26;;;;;;;18.23;16.63;;;10.90;99.90;;;;;;4965433;28;21019;-65
2023/05/13 05:21:56;;;;;;;17.20;15.70;;;11.00;99.90;;;;;;4955950;28;21030;-65
2023/05/13 05:24:24;;;;;;;15.93;14.53;;;11.00;99.90;;;;;;4960255;28;20473;-65
2023/05/13 05:26:52;;;;;;;17.70;16.10;;;11.10;99.90;;;;;;4961097;28;20489;-66
2023/05/13 05:29:20;;;;;;;17.43;15.90;;;11.10;99.90;;;;;;4967273;28;20496;-64
2023/05/13 05:31:48;;;;;;;17.60;15.90;;;11.20;99.90;;;;;;4974648;28;20497;-64
2023/05/13 05:34:18;;;;;;;17.23;15.70;;;11.30;99.90;;;;;;4975703;28;20470;-65
2023/05/13 05:36:46;;;;;;;15.90;14.50;;;11.30;99.90;;;;;;4972135;28;20559;-65
2023/05/13 05:39:15;;;;;;;17.27;15.77;;;11.40;99.90;;;;;;4976576;28;20782;-65
2023/05/13 05:41:43;;;;;;;15.80;14.30;;;11.50;99.90;;;;;;4981641;28;20494;-66
2023/05/13 05:44:12;;;;;;;17.10;15.50;;;11.50;99.90;;;;;;4982152;28;20481;-66
2023/05/13 05:46:40;;;;;;;15.40;14.07;;;11.60;99.90;;;;;;4981025;28;20497;-65
2023/05/13 05:49:08;;;;;;;14.97;13.67;;;11.70;99.90;;;;;;4977822;28;20489;-66
2023/05/13 05:51:36;;;;;;;14.77;13.37;;;11.70;99.90;;;;;;4974216;28;21008;-65
2023/05/13 05:54:04;;;;;;;14.67;13.37;;;11.80;99.90;;;;;;4976381;28;20485;-65
2023/05/13 05:56:34;;;;;;;14.03;12.83;;;11.90;99.90;;;;;;4976668;28;20489;-65
2023/05/13 05:59:02;;;;;;;14.17;12.90;;;11.90;99.90;;;;;;4981866;28;20940;-65
2023/05/13 06:01:32;;;;;;;14.93;12.67;;;12.00;99.90;;;;;;4971078;28;20494;-66
2023/05/13 06:04:00;;;;;;;15.43;13.63;;;12.10;99.90;;;;;;4982405;28;20879;-66
2023/05/13 06:06:28;;;;;;;13.20;11.90;;;12.20;99.90;;;;;;4978072;28;20505;-66
2023/05/13 06:08:56;;;;;;;12.53;11.53;;;12.30;99.90;;;;;;4976115;28;20484;-66
2023/05/13 06:11:24;;;;;;;13.40;12.20;;;12.40;99.90;;;;;;4978012;28;20850;-64
2023/05/13 06:13:56;;;;;;;12.07;11.03;;;12.50;99.90;;;;;;4973517;28;20478;-65
2023/05/13 06:16:24;;;;;;;12.10;11.00;;;12.70;99.90;;;;;;4980547;28;20500;-65
2023/05/13 06:18:52;;;;;;;11.80;10.80;;;12.70;99.90;;;;;;4979202;28;20815;-65
2023/05/13 06:21:20;;;;;;;12.07;10.63;;;12.80;99.90;;;;;;4978031;28;20462;-67
2023/05/13 06:23:48;;;;;;;11.27;10.23;;;12.90;99.90;;;;;;4981623;28;20473;-65
2023/05/13 06:26:16;;;;;;;11.70;10.40;;;12.90;99.90;;;;;;4982603;28;20542;-67
2023/05/13 06:28:44;;;;;;;11.57;10.37;;;13.00;99.90;;;;;;4981919;28;20476;-66
2023/05/13 06:31:13;;;;;;;10.80;9.87;;;13.10;99.90;;;;;;4979118;28;20478;-65
2023/05/13 06:33:41;;;;;;;11.37;10.33;;;13.20;99.90;;;;;;4979920;28;20465;-65
2023/05/13 06:36:09;;;;;;;10.83;9.60;;;13.30;99.90;;;;;;4972859;28;20482;-66
2023/05/13 06:38:37;;;;;;;10.17;9.27;;;13.30;99.90;;;;;;4980589;28;20485;-66
2023/05/13 06:41:05;;;;;;;10.37;9.57;;;13.40;99.90;;;;;;4974629;28;20468;-66
2023/05/13 06:43:33;;;;;;;10.73;9.80;;;13.50;99.90;;;;;;4965983;28;20492;-66
2023/05/13 06:46:02;;;;;;;10.67;9.77;;;13.60;99.90;;;;;;4970183;28;20509;-65
2023/05/13 06:48:31;;;;;;;10.87;9.80;;;13.70;99.90;;;;;;4971967;28;20471;-67
2023/05/13 06:50:59;;;;;;;9.10;8.20;;;13.80;99.90;;;;;;4973710;28;21037;-65
2023/05/13 06:53:27;;;;;;;9.73;8.87;;;13.90;99.90;;;;;;4970126;28;20477;-67
2023/05/13 06:55:55;;;;;;;9.23;8.43;;;14.00;99.90;;;;;;4950044;28;21044;-67
2023/05/13 06:58:23;;;;;;;9.53;8.53;;;14.10;99.90;;;;;;4972528;28;20613;-66
2023/05/13 07:00:51;;;;;;;9.47;8.50;;;14.20;99.90;;;;;;4962133;28;20476;-65
2023/05/13 07:03:19;;;;;;;8.30;7.47;;;14.30;99.90;;;;;;4957725;28;21128;-65
2023/05/13 07:05:48;;;;;;;9.93;8.00;;;14.40;99.90;;;;;;4951324;28;20492;-66
2023/05/13 07:08:16;;;;;;;8.43;7.77;;;14.50;99.90;;;;;;4961287;28;20673;-65
2023/05/13 07:10:45;;;;;;;8.30;7.50;;;14.60;99.90;;;;;;4958954;28;20858;-67
2023/05/13 07:13:13;;;;;;;7.27;6.77;;;14.70;99.90;;;;;;4958177;28;20469;-63
2023/05/13 07:15:41;;;;;;;8.70;7.90;;;14.80;99.90;;;;;;4961164;28;21096;-66
2023/05/13 07:18:09;;;;;;;8.03;7.20;;;14.90;99.90;;;;;;4959406;28;20521;-65
2023/05/13 07:20:37;;;;;;;8.53;7.40;;;15.00;99.90;;;;;;4958497;28;21128;-63
2023/05/13 07:23:06;;;;;;;7.97;7.30;;;15.10;99.90;;;;;;4963407;28;20496;-64
2023/05/13 07:25:34;;;;;;;8.50;7.80;;;15.20;99.90;;;;;;4954587;28;20496;-66
2023/05/13 07:28:03;;;;;;;8.83;8.03;;;15.30;99.90;;;;;;4949007;28;20684;-65
2023/05/13 07:30:31;;;;;;;8.20;7.40;;;15.40;99.90;;;;;;4958130;28;20504;-65
2023/05/13 07:32:59;;;;;;;7.23;6.63;;;15.50;99.90;;;;;;4934843;28;20861;-64
2023/05/13 07:35:27;;;;;;;8.47;7.73;;;15.60;99.90;;;;;;4951503;28;20469;-64
2023/05/13 07:37:55;;;;;;;9.10;8.20;;;15.70;99.90;;;;;;4965534;28;20493;-65
2023/05/13 07:40:24;;;;;;;7.70;7.00;;;15.80;99.90;;;;;;4968548;28;20858;-66
2023/05/13 07:42:52;;;;;;;7.93;7.17;;;15.90;99.90;;;;;;4963925;28;20493;-64
2023/05/13 07:45:20;;;;;;;8.77;8.00;;;16.00;99.90;;;;;;4976477;28;20474;-64
2023/05/13 07:47:49;;;;;;;8.50;7.80;;;16.10;99.90;;;;;;4960249;28;20596;-64
2023/05/13 07:50:17;;;;;;;9.10;8.30;;;16.10;99.90;;;;;;4961021;28;21342;-66
2023/05/13 07:52:47;;;;;;;8.87;7.97;;;16.20;99.90;;;;;;4969217;28;20544;-64
2023/05/13 07:55:15;;;;;;;10.00;8.80;;;16.20;99.90;;;;;;4967998;28;21065;-66
2023/05/13 07:57:45;;;;;;;8.37;7.47;;;16.40;99.90;;;;;;4967165;28;20974;-66
2023/05/13 08:00:14;;;;;;;8.77;7.87;;;16.50;99.90;;;;;;4963453;28;20508;-66
2023/05/13 08:02:42;;;;;;;8.03;7.43;;;16.60;99.90;;;;;;4974545;28;20583;-66
2023/05/13 08:05:11;;;;;;;9.33;7.43;;;16.70;99.90;;;;;;4959661;28;20619;-66
2023/05/13 08:07:39;;;;;;;7.90;7.10;;;16.80;99.90;;;;;;4964260;28;21024;-67
2023/05/13 08:10:08;;;;;;;7.47;6.57;;;16.80;99.90;;;;;;4963439;28;20778;-65
2023/05/13 08:12:36;;;;;;;7.33;6.70;;;16.90;99.90;;;;;;4965968;28;20472;-65
2023/05/13 08:15:07;;;;;;;7.67;6.97;;;17.00;99.90;;;;;;4965332;28;20472;-66
2023/05/13 08:17:35;;;;;;;6.83;6.03;;;17.10;99.90;;;;;;4960925;28;20872;-68
2023/05/13 08:20:03;;;;;;;7.10;6.57;;;17.30;99.90;;;;;;4950708;28;20503;-67
2023/05/13 08:22:31;;;;;;;7.10;5.90;;;17.40;99.90;;;;;;4958534;28;20548;-67
2023/05/13 08:24:59;;;;;;;7.33;6.70;;;17.60;99.90;;;;;;4961029;28;20851;-67
2023/05/13 08:27:27;;;;;;;6.33;5.90;;;17.70;99.90;;;;;;4965048;28;20497;-65
2023/05/13 08:29:55;;;;;;;7.80;6.73;;;17.80;99.90;;;;;;4956582;28;20488;-65
2023/05/13 08:32:25;;;;;;;7.23;6.47;;;17.90;99.90;;;;;;4962017;28;20477;-64
2023/05/13 08:34:53;;;;;;;8.83;6.23;;;18.10;99.90;;;;;;4966470;28;20992;-65
2023/05/13 08:37:21;;;;;;;7.63;6.50;;;18.20;99.90;;;;;;4958596;28;21033;-65
2023/05/13 08:39:49;;;;;;;6.53;6.03;;;18.20;99.90;;;;;;4958973;28;20714;-66
2023/05/13 08:42:20;;;;;;;6.20;5.70;;;18.30;99.90;;;;;;4967515;28;21004;-65
2023/05/13 08:44:49;;;;;;;9.90;6.10;;;18.40;99.90;;;;;;4969032;28;20478;-65
2023/05/13 08:47:27;;;;;;;7.70;5.90;;;18.40;99.90;;;;;;4968914;28;20536;-65
2023/05/13 08:49:56;;;;;;;6.90;6.27;;;18.50;99.90;;;;;;4979461;28;20869;-65
2023/05/13 08:52:25;;;;;;;6.67;6.00;;;18.60;99.90;;;;;;4970743;28;20473;-65
2023/05/13 08:54:54;;;;;;;5.80;5.40;;;18.70;99.90;;;;;;4974010;28;20501;-65
2023/05/13 08:57:22;;;;;;;6.70;6.10;;;18.80;99.90;;;;;;4981133;28;20492;-65
2023/05/13 08:59:50;;;;;;;6.30;5.70;;;18.90;99.90;;;;;;4980403;28;20492;-65
2023/05/13 09:02:18;;;;;;;6.90;6.30;;;19.00;99.90;;;;;;4977690;28;21200;-65
2023/05/13 09:04:52;;;;;;;7.17;6.40;;;19.10;99.90;;;;;;4981514;28;20522;-65
2023/05/13 09:07:21;;;;;;;6.40;5.90;;;19.20;99.90;;;;;;4979091;28;20508;-65
2023/05/13 09:09:49;;;;;;;6.83;6.00;;;19.30;99.90;;;;;;4974366;28;20488;-65
2023/05/13 09:12:52;;;;;;;5.70;5.30;;;19.30;99.90;;;;;;4978850;28;20470;-66
2023/05/13 09:15:22;;;;;;;5.77;5.23;;;19.40;99.90;;;;;;4978229;28;20477;-65
2023/05/13 09:17:52;;;;;;;6.73;5.60;;;19.50;99.90;;;;;;4973197;28;20497;-63
2023/05/13 09:20:24;;;;;;;5.80;5.20;;;19.60;99.90;;;;;;4971503;28;20841;-63
2023/05/13 09:22:54;;;;;;;6.53;5.10;;;19.70;99.90;;;;;;4968739;28;20476;-66
2023/05/13 09:25:23;;;;;;;6.53;5.23;;;19.80;99.90;;;;;;4963455;28;21155;-66
2023/05/13 09:27:56;;;;;;;5.90;5.33;;;19.80;99.90;;;;;;4959762;28;20493;-66
2023/05/13 09:30:27;;;;;;;6.30;5.70;;;19.90;99.90;;;;;;4962603;28;20552;-66
2023/05/13 09:33:07;;;;;;;6.93;5.80;;;20.00;99.90;;;;;;4965870;28;20465;-66
2023/05/13 09:35:38;;;;;;;5.70;5.10;;;20.10;99.90;;;;;;4971547;28;20477;-66
2023/05/13 09:38:17;;;;;;;5.83;5.27;;;20.10;99.90;;;;;;4977840;28;20484;-66
2023/05/13 09:40:51;;;;;;;6.03;5.43;;;20.20;99.90;;;;;;4974321;28;20488;-64
2023/05/13 09:43:21;;;;;;;6.90;5.33;;;20.20;99.90;;;;;;4974214;28;20497;-64
2023/05/13 09:45:53;;;;;;;6.10;5.50;;;20.40;99.90;;;;;;4976957;28;20848;-64
2023/05/13 09:48:21;;;;;;;6.13;5.40;;;20.40;99.90;;;;;;4981158;28;20501;-64
2023/05/13 09:50:52;;;;;;;6.10;5.60;;;20.50;99.90;;;;;;4983061;28;22173;-64
2023/05/13 09:53:20;;;;;;;6.00;5.40;;;20.50;99.90;;;;;;4979848;28;20495;-65
2023/05/13 09:55:49;;;;;;;5.90;5.43;;;20.50;99.90;;;;;;4989992;28;20469;-65
2023/05/13 09:58:19;;;;;;;5.37;5.03;;;20.60;99.90;;;;;;4986600;28;20919;-66
2023/05/13 10:00:47;;;;;;;5.87;5.37;;;20.70;99.90;;;;;;4983191;28;20478;-66
2023/05/13 10:03:16;;;;;;;6.03;5.57;;;20.70;96.40;;;;;;4981850;28;20531;-66
2023/05/13 10:05:45;;;;;;;5.93;5.33;;;20.70;99.90;;;;;;4979811;28;20485;-66
2023/05/13 10:08:14;;;;;;;5.50;5.10;;;20.80;99.90;;;;;;4981201;28;21153;-66
2023/05/13 10:10:44;;;;;;;5.53;5.13;;;20.80;99.90;;;;;;4980691;28;20470;-66
2023/05/13 10:13:15;;;;;;;6.70;5.70;;;20.90;96.60;;;;;;4980291;28;20473;-66
2023/05/13 10:15:49;;;;;;;6.23;5.63;;;20.90;99.90;;;;;;4980457;28;20481;-66
2023/05/13 10:18:18;;;;;;;5.70;5.20;;;20.90;99.90;;;;;;4981714;28;20919;-65
2023/05/13 10:20:51;;;;;;;5.47;4.97;;;21.00;99.90;;;;;;4981708;28;20480;-64
2023/05/13 10:23:22;;;;;;;5.87;5.37;;;21.10;99.90;;;;;;4977848;28;21557;-65
2023/05/13 10:25:51;;;;;;;5.87;5.40;;;21.00;96.40;;;;;;4981817;28;20470;-64
2023/05/13 10:28:19;;;;;;;6.53;5.90;;;21.10;99.90;;;;;;4981212;28;20896;-64
2023/05/13 10:30:50;;;;;;;5.80;5.40;;;21.20;99.90;;;;;;4982236;28;21263;-66
2023/05/13 10:33:18;;;;;;;5.80;5.30;;;21.30;99.90;;;;;;4981212;28;20558;-65
2023/05/13 10:36:01;;;;;;;5.60;5.20;;;21.40;99.90;;;;;;4980366;28;20481;-66
2023/05/13 10:38:43;;;;;;;5.60;5.00;;;21.40;99.90;;;;;;4979677;28;20476;-65
2023/05/13 10:41:27;;;;;;;6.00;5.30;;;21.50;99.90;;;;;;4980722;28;20484;-65
2023/05/13 10:43:57;;;;;;;5.73;5.33;;;21.40;98.50;;;;;;4979446;28;21003;-65
2023/05/13 10:46:26;;;;;;;5.33;4.90;;;21.50;98.50;;;;;;4978911;28;21055;-65
2023/05/13 10:48:58;;;;;;;5.80;5.40;;;21.60;88.50;;;;;;4980489;28;20554;-65
2023/05/13 10:51:26;;;;;;;5.67;5.20;;;21.70;75.40;;;;;;4982470;28;20508;-65
2023/05/13 10:53:57;;;;;;;5.57;5.10;;;21.60;72.10;;;;;;4983129;28;20474;-65
2023/05/13 10:56:27;;;;;;;5.70;5.20;;;21.70;93.10;;;;;;4978788;28;20526;-65
2023/05/13 10:59:00;;;;;;;5.30;4.90;;;21.80;75.00;;;;;;4982602;28;20493;-65
2023/05/13 11:01:29;;;;;;;5.07;4.60;;;21.80;70.90;;;;;;4980645;28;20588;-65
2023/05/13 11:03:59;;;;;;;5.13;4.73;;;21.90;78.70;;;;;;4973371;28;20496;-65
2023/05/13 11:06:31;;;;;;;5.60;5.10;;;22.00;81.80;;;;;;4980003;28;20504;-65
2023/05/13 11:09:01;;;;;;;6.83;6.10;;;22.10;69.60;;;;;;4983477;28;20489;-65
2023/05/13 11:11:34;;;;;;;5.47;4.97;;;22.20;68.90;;;;;;4980729;28;20469;-65
2023/05/13 11:14:15;;;;;;;7.63;5.60;;;22.20;70.10;;;;;;4981559;28;20461;-65
2023/05/13 11:16:47;;;;;;;6.00;5.40;;;22.40;78.70;;;;;;4981454;28;20496;-66
2023/05/13 11:19:21;;;;;;;6.60;5.63;;;22.50;76.30;;;;;;4979709;28;20496;-65
2023/05/13 11:21:52;;;;;;;6.10;5.60;;;22.70;75.20;;;;;;4980890;28;20484;-65
2023/05/13 11:24:22;;;;;;;6.47;5.90;;;22.80;69.50;;;;;;4983321;28;20497;-65
2023/05/13 11:26:55;;;;;;;5.50;5.20;;;22.80;62.10;;;;;;4979737;28;20481;-65
2023/05/13 11:29:30;;;;;;;6.43;5.63;;;22.90;60.10;;;;;;4979960;28;20488;-65
2023/05/13 11:32:00;;;;;;;5.40;5.00;;;22.90;64.10;;;;;;4982512;28;20558;-65
2023/05/13 11:34:28;;;;;;;6.27;5.70;;;22.80;55.70;;;;;;4974901;28;20478;-65
2023/05/13 11:37:05;;;;;;;5.80;5.30;;;22.70;56.80;;;;;;4980014;28;20500;-65
2023/05/13 11:39:35;;;;;;;6.40;6.00;;;22.80;63.00;;;;;;4978158;28;20488;-65
2023/05/13 11:42:07;;;;;;;6.07;5.57;;;22.80;58.60;;;;;;4978942;28;20974;-65
2023/05/13 11:44:36;;;;;;;6.97;5.13;;;22.70;58.90;;;;;;4981246;28;20493;-65
2023/05/13 11:47:06;;;;;;;5.50;5.10;;;22.60;55.80;;;;;;4981419;28;20647;-65
2023/05/13 11:49:39;;;;;;;5.70;5.30;;;22.40;56.60;;;;;;4979650;28;20489;-65
2023/05/13 11:52:09;;;;;;;5.63;5.13;;;22.40;59.40;;;;;;4978483;28;20491;-65
2023/05/13 11:54:47;;;;;;;5.63;5.13;;;22.30;56.90;;;;;;4981128;28;20465;-65
2023/05/13 11:57:22;;;;;;;5.87;5.37;;;22.30;57.90;;;;;;4978146;28;20552;-65
2023/05/13 11:59:52;;;;;;;5.87;5.37;;;22.50;60.00;;;;;;4979507;28;20500;-65
2023/05/13 12:02:21;;;;;;;6.50;5.80;;;22.70;57.90;;;;;;4979701;28;20552;-65
2023/05/13 12:04:51;;;;;;;5.07;4.77;;;22.70;52.70;;;;;;4978030;28;20497;-65
2023/05/13 12:07:21;;;;;;;4.93;4.53;;;22.70;55.00;;;;;;4979055;28;20501;-65
2023/05/13 12:09:51;;;;;;;5.40;4.90;;;22.60;53.30;;;;;;4977854;28;21465;-65
2023/05/13 12:12:20;;;;;;;5.00;4.60;;;22.60;54.10;;;;;;4980722;28;20469;-65
2023/05/13 12:14:49;;;;;;;4.83;4.50;;;22.70;55.10;;;;;;4978665;28;20469;-65
2023/05/13 12:17:18;;;;;;;6.47;4.90;;;22.90;53.10;;;;;;4980001;28;20488;-65
2023/05/13 12:20:09;;;;;;;5.83;5.33;;;23.00;48.70;;;;;;4977910;28;20490;-65
2023/05/13 12:22:48;;;;;;;5.13;4.70;;;23.00;49.00;;;;;;4980076;28;20480;-65
2023/05/13 12:25:40;;;;;;;5.10;4.60;;;23.10;47.10;;;;;;4973025;28;20496;-65
2023/05/13 12:28:15;;;;;;;4.40;4.07;;;23.20;45.60;;;;;;4979848;28;20485;-65
2023/05/13 12:30:50;;;;;;;4.60;4.27;;;23.30;49.30;;;;;;4977042;28;20990;-65
2023/05/13 12:33:19;;;;;;;5.47;5.03;;;23.50;48.40;;;;;;4979233;28;20472;-66
2023/05/13 12:35:49;;;;;;;5.03;4.63;;;23.70;48.80;;;;;;4978479;28;20473;-66
2023/05/13 12:38:19;;;;;;;4.87;4.37;;;24.00;46.80;;;;;;4979001;28;20523;-66
2023/05/13 12:40:49;;;;;;;4.37;4.07;;;24.10;45.20;;;;;;4979311;28;20556;-66
2023/05/13 12:43:18;;;;;;;4.97;4.57;;;24.30;43.40;;;;;;4976677;28;20976;-66
2023/05/13 12:45:51;;;;;;;4.57;4.27;;;24.40;42.90;;;;;;4979495;28;20489;-66
2023/05/13 12:48:23;;;;;;;4.60;4.20;;;24.60;42.20;;;;;;4974534;28;20481;-66